Terminal Aerodrome Forecast
Issued by NWS

Home | Current Version | Previous Version | Text Only | Print | Product List | Glossary On
Versions: 1 2 3 4 5 6 7 8 9 10 11 12
000
FTUS42 KTBW 212300
TAFPIE
TAF
KPIE 212324Z 2200/2224 05011KT P6SM BKN070 OVC250
     FM221200 08010KT P6SM VCSH SCT020 BKN030 OVC060
     FM221800 09011KT P6SM VCSH BKN025 OVC050=

USA.gov is the U.S. government's official web portal to all federal, state and local government web resources and services.